createdAt,value
2023-05-13T00:01:08.062Z,14.90
2023-05-13T00:03:35.355Z,14.90
2023-05-13T00:06:02.181Z,14.90
2023-05-13T00:08:28.873Z,14.80
2023-05-13T00:10:55.568Z,14.80
2023-05-13T00:13:22.257Z,14.70
2023-05-13T00:15:48.983Z,14.70
2023-05-13T00:18:16.162Z,14.70
2023-05-13T00:20:42.956Z,14.60
2023-05-13T00:23:10.331Z,14.60
2023-05-13T00:25:37.565Z,14.60
2023-05-13T00:28:05.359Z,14.60
2023-05-13T00:30:32.421Z,14.50
2023-05-13T00:32:59.307Z,14.40
2023-05-13T00:35:26.311Z,14.40
2023-05-13T00:37:53.212Z,14.30
2023-05-13T00:40:22.283Z,14.30
2023-05-13T00:42:49.775Z,14.30
2023-05-13T00:45:17.556Z,14.30
2023-05-13T00:47:44.902Z,14.30
2023-05-13T00:50:13.431Z,14.30
2023-05-13T00:52:41.983Z,14.30
2023-05-13T00:55:09.632Z,14.30
2023-05-13T00:57:37.577Z,14.30
2023-05-13T01:00:07.999Z,14.20
2023-05-13T01:03:00.041Z,14.20
2023-05-13T01:05:33.889Z,14.20
2023-05-13T01:08:27.916Z,14.20
2023-05-13T01:11:01.463Z,14.10
2023-05-13T01:13:36.852Z,14.10
2023-05-13T01:16:18.251Z,13.60
2023-05-13T01:18:49.662Z,14.00
2023-05-13T01:21:16.526Z,13.90
2023-05-13T01:23:43.191Z,13.80
2023-05-13T01:26:09.957Z,13.80
2023-05-13T01:28:36.679Z,13.80
2023-05-13T01:31:04.226Z,13.60
2023-05-13T01:33:31.802Z,13.50
2023-05-13T01:35:58.985Z,13.50
2023-05-13T01:38:27.883Z,13.40
2023-05-13T01:40:56.326Z,13.50
2023-05-13T01:43:23.389Z,13.50
2023-05-13T01:45:50.139Z,13.40
2023-05-13T01:48:18.635Z,13.20
2023-05-13T01:50:46.190Z,13.20
2023-05-13T01:53:12.982Z,13.20
2023-05-13T01:55:40.415Z,13.10
2023-05-13T01:58:07.119Z,13.30
2023-05-13T02:00:33.798Z,12.40
2023-05-13T02:03:00.616Z,13.00
2023-05-13T02:05:27.405Z,12.90
2023-05-13T02:07:54.124Z,12.80
2023-05-13T02:10:21.375Z,12.80
2023-05-13T02:12:48.284Z,12.70
2023-05-13T02:15:15.111Z,12.70
2023-05-13T02:17:42.329Z,12.70
2023-05-13T02:20:09.705Z,12.70
2023-05-13T02:22:36.468Z,12.60
2023-05-13T02:25:04.422Z,12.60
2023-05-13T02:27:31.279Z,12.60
2023-05-13T02:29:58.061Z,12.60
2023-05-13T02:32:24.747Z,12.50
2023-05-13T02:37:18.732Z,12.50
2023-05-13T02:39:45.810Z,12.40
2023-05-13T02:42:13.065Z,12.40
2023-05-13T02:44:40.465Z,12.40
2023-05-13T02:47:07.677Z,12.40
2023-05-13T02:49:34.397Z,12.40
2023-05-13T02:52:01.242Z,12.40
2023-05-13T02:54:28.378Z,12.20
2023-05-13T02:56:55.126Z,12.30
2023-05-13T02:59:21.892Z,12.20
2023-05-13T03:01:49.410Z,12.10
2023-05-13T03:04:16.396Z,12.10
2023-05-13T03:06:43.320Z,12.10
2023-05-13T03:09:10.258Z,12.00
2023-05-13T03:11:36.980Z,12.00
2023-05-13T03:14:03.638Z,12.00
2023-05-13T03:16:31.132Z,11.90
2023-05-13T03:18:57.886Z,11.90
2023-05-13T03:21:24.599Z,11.90
2023-05-13T03:23:51.253Z,11.80
2023-05-13T03:26:17.920Z,11.80
2023-05-13T03:28:44.765Z,11.80
2023-05-13T03:31:12.177Z,11.70
2023-05-13T03:33:38.989Z,11.70
2023-05-13T03:36:07.041Z,11.60
2023-05-13T03:38:33.739Z,11.60
2023-05-13T03:41:00.528Z,11.60
2023-05-13T03:43:27.195Z,11.60
2023-05-13T03:45:53.988Z,11.50
2023-05-13T03:48:20.885Z,11.60
2023-05-13T03:50:47.898Z,11.50
2023-05-13T03:53:14.657Z,11.50
2023-05-13T03:55:41.500Z,11.50
2023-05-13T03:58:14.271Z,11.50
2023-05-13T04:00:42.372Z,11.40
2023-05-13T04:03:10.464Z,11.40
2023-05-13T04:05:37.321Z,11.40
2023-05-13T04:08:04.177Z,11.30
2023-05-13T04:10:31.007Z,11.30
2023-05-13T04:12:57.710Z,11.40
2023-05-13T04:15:24.406Z,11.40
2023-05-13T04:17:52.431Z,11.40
2023-05-13T04:20:19.935Z,11.40
2023-05-13T04:22:46.766Z,11.40
2023-05-13T04:25:13.500Z,11.40
2023-05-13T04:27:40.357Z,11.40
2023-05-13T04:30:07.815Z,11.40
2023-05-13T04:32:34.656Z,11.40
2023-05-13T04:35:01.379Z,11.50
2023-05-13T04:37:28.573Z,11.50
2023-05-13T04:39:55.421Z,11.50
2023-05-13T04:42:22.136Z,11.50
2023-05-13T04:44:48.817Z,11.50
2023-05-13T04:47:15.566Z,11.50
2023-05-13T04:49:42.512Z,11.60
2023-05-13T04:52:11.702Z,11.60
2023-05-13T04:54:39.627Z,11.60
2023-05-13T04:57:06.514Z,11.70
2023-05-13T04:59:33.512Z,11.70
2023-05-13T05:02:00.418Z,11.80
2023-05-13T05:04:27.803Z,11.80
2023-05-13T05:06:54.576Z,11.80
2023-05-13T05:09:21.664Z,11.90
2023-05-13T05:11:50.417Z,11.90
2023-05-13T05:14:17.552Z,12.00
2023-05-13T05:16:44.313Z,12.00
2023-05-13T05:19:11.124Z,12.10
2023-05-13T05:21:38.417Z,12.10
2023-05-13T05:24:06.603Z,12.20
2023-05-13T05:26:33.374Z,12.30
2023-05-13T05:29:00.480Z,12.30
2023-05-13T05:31:27.538Z,12.40
2023-05-13T05:33:55.093Z,12.50
2023-05-13T05:36:21.829Z,12.50
2023-05-13T05:38:48.776Z,12.50
2023-05-13T05:41:15.862Z,12.60
2023-05-13T05:43:42.682Z,12.60
2023-05-13T05:46:09.941Z,12.80
2023-05-13T05:48:36.725Z,13.10
2023-05-13T05:51:03.472Z,13.30
2023-05-13T05:53:30.284Z,13.60
2023-05-13T05:55:57.079Z,14.20
2023-05-13T05:58:23.814Z,15.00
2023-05-13T06:00:50.756Z,15.80
2023-05-13T06:03:17.671Z,16.30
2023-05-13T06:05:44.935Z,16.40
2023-05-13T06:08:11.600Z,17.30
2023-05-13T06:10:38.657Z,17.40
2023-05-13T06:13:05.659Z,18.00
2023-05-13T06:15:32.675Z,18.30
2023-05-13T06:18:00.233Z,18.40
2023-05-13T06:20:27.119Z,18.40
2023-05-13T06:22:53.808Z,18.70
2023-05-13T06:25:20.810Z,19.20
2023-05-13T06:27:47.554Z,19.60
2023-05-13T06:30:14.385Z,19.40
2023-05-13T06:32:47.589Z,19.30
2023-05-13T06:35:24.343Z,19.30
2023-05-13T06:37:51.100Z,19.80
2023-05-13T06:40:17.919Z,20.20
2023-05-13T06:42:44.691Z,20.60
2023-05-13T06:45:11.581Z,20.90
2023-05-13T06:47:38.438Z,21.10
2023-05-13T06:50:05.528Z,21.50
2023-05-13T06:52:32.328Z,21.80
2023-05-13T06:54:59.978Z,22.20
2023-05-13T07:00:09.335Z,23.00
2023-05-13T07:02:36.435Z,23.10
2023-05-13T07:05:03.360Z,23.40
2023-05-13T07:07:30.148Z,23.40
2023-05-13T07:09:57.279Z,23.70
2023-05-13T07:12:24.284Z,23.50
2023-05-13T07:14:51.114Z,23.70
2023-05-13T07:17:18.022Z,23.60
2023-05-13T07:19:44.840Z,23.30
2023-05-13T07:22:11.657Z,23.30
2023-05-13T07:24:38.792Z,23.50
2023-05-13T07:27:05.948Z,23.70
2023-05-13T07:29:34.713Z,24.10
2023-05-13T07:32:06.086Z,24.20
2023-05-13T07:34:32.956Z,24.30
2023-05-13T07:36:59.902Z,24.30
2023-05-13T07:39:27.452Z,24.40
2023-05-13T07:41:54.409Z,24.30
2023-05-13T07:44:21.758Z,24.30
2023-05-13T07:46:49.468Z,24.50
2023-05-13T07:49:16.418Z,24.40
2023-05-13T07:51:43.296Z,24.30
2023-05-13T07:54:10.533Z,24.30
2023-05-13T07:56:38.537Z,24.40
2023-05-13T08:02:19.435Z,24.70
2023-05-13T08:04:46.818Z,24.60
2023-05-13T08:07:13.792Z,24.60
2023-05-13T08:09:40.763Z,24.60
2023-05-13T08:12:08.111Z,24.70
2023-05-13T08:14:35.917Z,24.70
2023-05-13T08:17:05.293Z,24.60
2023-05-13T08:19:32.317Z,24.70
2023-05-13T08:21:59.218Z,24.70
2023-05-13T08:24:26.033Z,24.70
2023-05-13T08:26:52.883Z,24.90
2023-05-13T08:29:19.801Z,24.90
2023-05-13T08:31:47.221Z,24.90
2023-05-13T08:34:14.214Z,25.10
2023-05-13T08:36:41.317Z,25.40
2023-05-13T08:39:08.357Z,25.40
2023-05-13T08:41:35.259Z,25.60
2023-05-13T08:44:06.993Z,25.60
2023-05-13T08:46:35.209Z,25.50
2023-05-13T08:49:02.731Z,25.50
2023-05-13T08:51:29.752Z,25.60
2023-05-13T08:53:56.732Z,25.40
2023-05-13T08:56:25.764Z,25.20
2023-05-13T08:58:52.613Z,25.10
2023-05-13T09:01:19.492Z,25.30
2023-05-13T09:04:12.809Z,25.20
2023-05-13T09:06:39.703Z,25.20
2023-05-13T09:09:06.599Z,25.20
2023-05-13T09:11:34.072Z,25.10
2023-05-13T09:14:03.875Z,25.00
2023-05-13T09:16:32.771Z,24.90
2023-05-13T09:19:01.514Z,25.10
2023-05-13T09:21:35.469Z,25.20
2023-05-13T09:24:13.901Z,25.30
2023-05-13T09:26:42.503Z,25.40
2023-05-13T09:29:31.089Z,25.40
2023-05-13T09:32:01.300Z,25.30
2023-05-13T09:34:33.192Z,25.20
2023-05-13T09:37:05.564Z,25.10
2023-05-13T09:39:34.731Z,25.20
2023-05-13T09:42:04.659Z,25.20
2023-05-13T09:44:33.912Z,25.00
2023-05-13T09:47:02.744Z,24.80
2023-05-13T09:49:32.031Z,24.70
2023-05-13T09:52:10.152Z,24.80
2023-05-13T09:54:40.072Z,24.60
2023-05-13T09:57:07.312Z,24.40
2023-05-13T09:59:35.276Z,24.50
2023-05-13T10:02:06.867Z,24.70
2023-05-13T10:04:34.274Z,24.90
2023-05-13T10:07:04.681Z,25.10
2023-05-13T10:09:39.312Z,25.30
2023-05-13T10:12:09.198Z,25.40
2023-05-13T10:14:40.162Z,25.40
2023-05-13T10:17:09.378Z,25.40
2023-05-13T10:19:37.257Z,25.30
2023-05-13T10:22:04.828Z,25.10
2023-05-13T10:24:32.926Z,25.30
2023-05-13T10:27:02.373Z,25.40
2023-05-13T10:29:29.664Z,25.50
2023-05-13T10:31:57.432Z,25.70
2023-05-13T10:34:25.773Z,25.70
2023-05-13T10:37:21.907Z,25.80
2023-05-13T10:40:23.613Z,25.80
2023-05-13T10:43:14.403Z,25.90
2023-05-13T10:45:45.364Z,25.90
2023-05-13T10:48:14.123Z,25.90
2023-05-13T10:50:53.745Z,25.90
2023-05-13T10:53:28.387Z,25.90
2023-05-13T10:56:01.283Z,25.70
2023-05-13T10:58:37.632Z,25.60
2023-05-13T11:01:29.831Z,25.70
2023-05-13T11:04:02.710Z,25.70
2023-05-13T11:06:39.590Z,25.70
2023-05-13T11:09:08.458Z,25.70
2023-05-13T11:11:36.772Z,25.70
2023-05-13T11:14:20.779Z,25.70
2023-05-13T11:17:07.215Z,25.80
2023-05-13T11:19:39.488Z,25.90
2023-05-13T11:22:19.533Z,25.90
2023-05-13T11:25:04.218Z,26.00
2023-05-13T11:27:37.852Z,26.00
2023-05-13T11:30:21.278Z,26.00
2023-05-13T11:32:53.707Z,26.00
2023-05-13T11:35:32.671Z,26.00
2023-05-13T11:38:01.574Z,26.00
2023-05-13T11:40:33.825Z,26.10
2023-05-13T11:43:01.961Z,26.20
2023-05-13T11:45:29.987Z,26.30
2023-05-13T11:47:57.696Z,26.50
2023-05-13T11:50:28.130Z,26.50
2023-05-13T11:53:00.338Z,26.60
2023-05-13T11:55:32.577Z,26.50
2023-05-13T11:58:00.265Z,26.50
2023-05-13T12:00:35.117Z,26.40
2023-05-13T12:03:10.465Z,26.30
2023-05-13T12:05:38.636Z,26.40
2023-05-13T12:08:09.537Z,26.50
2023-05-13T12:10:42.286Z,26.50
2023-05-13T12:13:09.416Z,26.50
2023-05-13T12:15:36.581Z,26.60
2023-05-13T12:18:03.805Z,26.70
2023-05-13T12:20:30.626Z,26.60
2023-05-13T12:22:58.264Z,26.70
2023-05-13T12:25:43.228Z,26.80
2023-05-13T12:28:12.988Z,26.80
2023-05-13T12:30:42.079Z,27.00
2023-05-13T12:33:25.503Z,27.10
2023-05-13T12:35:54.253Z,27.00
2023-05-13T12:38:23.899Z,27.10
2023-05-13T12:40:51.945Z,27.00
2023-05-13T12:43:19.754Z,27.10
2023-05-13T12:45:51.832Z,27.10
2023-05-13T12:48:23.569Z,27.20
2023-05-13T12:50:51.460Z,27.10
2023-05-13T12:53:18.198Z,27.20
2023-05-13T12:55:44.997Z,27.30
2023-05-13T12:58:13.283Z,27.30
2023-05-13T13:00:40.414Z,27.40
2023-05-13T13:03:07.994Z,27.40
2023-05-13T13:05:35.659Z,27.40
2023-05-13T13:08:05.321Z,27.50
2023-05-13T13:10:32.408Z,27.40
2023-05-13T13:12:59.219Z,27.30
2023-05-13T13:15:26.100Z,27.30
2023-05-13T13:17:52.863Z,27.40
2023-05-13T13:20:19.699Z,27.40
2023-05-13T13:22:46.481Z,27.40
2023-05-13T13:25:13.292Z,27.50
2023-05-13T13:27:40.755Z,27.50
2023-05-13T13:30:08.222Z,27.50
2023-05-13T13:32:35.893Z,27.40
2023-05-13T13:35:05.516Z,27.40
2023-05-13T13:37:32.440Z,27.30
2023-05-13T13:39:59.302Z,27.30
2023-05-13T13:42:40.256Z,27.30
2023-05-13T13:45:11.331Z,27.30
2023-05-13T13:47:38.573Z,27.20
2023-05-13T13:50:06.386Z,27.10
2023-05-13T13:52:33.237Z,27.00
2023-05-13T13:55:00.605Z,27.00
2023-05-13T13:57:27.427Z,26.90
2023-05-13T13:59:54.288Z,26.90
2023-05-13T14:02:21.137Z,26.90
2023-05-13T14:04:47.912Z,26.90
2023-05-13T14:07:15.516Z,27.00
2023-05-13T14:09:42.491Z,27.10
2023-05-13T14:12:09.490Z,27.10
2023-05-13T14:14:36.389Z,26.90
2023-05-13T14:17:03.547Z,26.90
2023-05-13T14:19:30.246Z,26.80
2023-05-13T14:21:56.981Z,26.90
2023-05-13T14:24:25.009Z,26.80
2023-05-13T14:26:51.808Z,26.80
2023-05-13T14:29:18.499Z,26.70
2023-05-13T14:31:45.305Z,26.70
2023-05-13T14:34:12.208Z,26.60
2023-05-13T14:36:39.306Z,26.70
2023-05-13T14:39:09.251Z,26.90
2023-05-13T14:41:40.317Z,27.00
2023-05-13T14:44:07.169Z,27.10
2023-05-13T14:46:37.292Z,27.10
2023-05-13T14:49:04.122Z,27.00
2023-05-13T14:51:30.887Z,27.40
2023-05-13T14:53:57.809Z,27.20
2023-05-13T14:56:25.378Z,26.90
2023-05-13T14:58:53.365Z,26.80
2023-05-13T15:01:20.431Z,26.90
2023-05-13T15:03:47.228Z,26.90
2023-05-13T15:06:14.084Z,26.90
2023-05-13T15:08:41.119Z,26.90
2023-05-13T15:11:08.360Z,27.00
2023-05-13T15:13:36.872Z,27.10
2023-05-13T15:16:04.442Z,27.10
2023-05-13T15:18:33.756Z,27.10
2023-05-13T15:21:00.791Z,27.00
2023-05-13T15:23:28.842Z,26.90
2023-05-13T15:25:55.890Z,26.90
2023-05-13T15:28:22.732Z,27.00
2023-05-13T15:30:49.591Z,26.90
2023-05-13T15:33:16.399Z,26.90
2023-05-13T15:35:43.666Z,26.80
2023-05-13T15:38:10.902Z,26.70
2023-05-13T15:40:39.078Z,26.70
2023-05-13T15:43:05.821Z,26.60
2023-05-13T15:45:33.152Z,26.60
2023-05-13T15:47:59.936Z,26.50
2023-05-13T15:50:27.481Z,26.40
2023-05-13T15:52:54.773Z,26.40
2023-05-13T15:55:22.219Z,26.40
2023-05-13T15:57:50.470Z,26.30
2023-05-13T16:00:18.469Z,26.30
2023-05-13T16:02:46.376Z,26.10
2023-05-13T16:05:15.353Z,26.10
2023-05-13T16:07:42.776Z,26.00
2023-05-13T16:10:09.921Z,26.00
2023-05-13T16:12:37.803Z,26.10
2023-05-13T16:15:04.986Z,26.10
2023-05-13T16:17:31.778Z,26.10
2023-05-13T16:19:59.781Z,26.10
2023-05-13T16:22:50.523Z,26.00
2023-05-13T16:25:17.339Z,26.00
2023-05-13T16:27:44.310Z,26.00
2023-05-13T16:30:11.574Z,26.00
2023-05-13T16:32:38.927Z,25.90
2023-05-13T16:35:06.292Z,25.90
2023-05-13T16:37:35.071Z,25.80
2023-05-13T16:40:01.789Z,25.70
2023-05-13T16:42:28.500Z,25.70
2023-05-13T16:44:55.299Z,25.60
2023-05-13T16:47:22.158Z,25.50
2023-05-13T16:49:50.224Z,25.50
2023-05-13T16:52:17.202Z,25.40
2023-05-13T16:54:44.845Z,25.20
2023-05-13T16:57:12.126Z,25.20
2023-05-13T16:59:39.129Z,25.20
2023-05-13T17:02:06.602Z,25.20
2023-05-13T17:04:34.276Z,25.20
2023-05-13T17:07:01.441Z,25.10
2023-05-13T17:09:29.819Z,25.10
2023-05-13T17:11:56.818Z,25.10
2023-05-13T17:14:23.586Z,25.10
2023-05-13T17:16:50.521Z,25.10
2023-05-13T17:19:17.446Z,25.10
2023-05-13T17:21:44.308Z,25.00
2023-05-13T17:24:11.033Z,25.10
2023-05-13T17:26:38.977Z,25.10
2023-05-13T17:29:06.193Z,25.00
2023-05-13T17:31:33.666Z,25.00
2023-05-13T17:34:00.684Z,24.90
2023-05-13T17:36:27.654Z,24.70
2023-05-13T17:38:54.528Z,24.60
2023-05-13T17:41:21.847Z,24.40
2023-05-13T17:43:48.670Z,24.10
2023-05-13T17:46:15.372Z,24.00
2023-05-13T17:48:42.732Z,23.90
2023-05-13T17:51:10.473Z,23.70
2023-05-13T17:53:37.138Z,23.60
2023-05-13T17:56:04.180Z,23.40
2023-05-13T17:58:30.942Z,23.30
2023-05-13T18:00:57.669Z,23.30
2023-05-13T18:03:24.458Z,23.20
2023-05-13T18:05:51.325Z,23.20
2023-05-13T18:08:18.077Z,23.20
2023-05-13T18:10:44.832Z,23.20
2023-05-13T18:13:12.633Z,23.30
2023-05-13T18:15:39.601Z,23.30
2023-05-13T18:18:06.911Z,23.20
2023-05-13T18:20:34.100Z,23.00
2023-05-13T18:23:01.058Z,22.90
2023-05-13T18:25:29.157Z,22.60
2023-05-13T18:27:55.895Z,22.50
2023-05-13T18:30:22.904Z,22.30
2023-05-13T18:32:50.876Z,22.10
2023-05-13T18:35:19.954Z,22.00
2023-05-13T18:37:47.193Z,21.90
2023-05-13T18:40:14.093Z,21.70
2023-05-13T18:42:40.881Z,21.60
2023-05-13T18:45:08.177Z,21.40
2023-05-13T18:47:34.994Z,21.40
2023-05-13T18:50:02.012Z,21.30
2023-05-13T18:52:29.033Z,21.20
2023-05-13T18:54:55.819Z,21.00
2023-05-13T18:57:23.819Z,20.90
2023-05-13T18:59:50.926Z,20.80
2023-05-13T19:02:17.840Z,20.70
2023-05-13T19:04:44.663Z,20.50
2023-05-13T19:07:11.368Z,20.50
2023-05-13T19:09:38.027Z,20.30
2023-05-13T19:12:04.902Z,20.20
2023-05-13T19:14:31.564Z,20.10
2023-05-13T19:16:58.367Z,20.00
2023-05-13T19:19:25.257Z,19.90
2023-05-13T19:21:52.090Z,19.90
2023-05-13T19:24:18.762Z,19.80
2023-05-13T19:26:45.576Z,19.70
2023-05-13T19:29:12.464Z,19.70
2023-05-13T19:31:39.425Z,19.70
2023-05-13T19:34:07.573Z,19.50
2023-05-13T19:36:34.425Z,19.50
2023-05-13T19:39:01.344Z,19.40
2023-05-13T19:41:28.191Z,19.30
2023-05-13T19:43:54.949Z,19.20
2023-05-13T19:46:21.918Z,19.20
2023-05-13T19:48:48.939Z,19.00
2023-05-13T19:51:15.760Z,19.10
2023-05-13T19:53:42.624Z,19.00
2023-05-13T19:56:09.424Z,18.90
2023-05-13T19:58:36.721Z,18.90
2023-05-13T20:01:03.614Z,18.80
2023-05-13T20:03:30.451Z,18.80
2023-05-13T20:05:57.247Z,18.70
2023-05-13T20:08:24.076Z,18.70
2023-05-13T20:10:50.830Z,18.60
2023-05-13T20:13:17.595Z,18.60
2023-05-13T20:15:44.377Z,18.40
2023-05-13T20:18:11.242Z,18.40
2023-05-13T20:20:37.998Z,18.30
2023-05-13T20:23:04.795Z,18.20
2023-05-13T20:25:31.829Z,18.10
2023-05-13T20:27:58.560Z,18.10
2023-05-13T20:30:25.493Z,18.00
2023-05-13T20:32:52.410Z,18.00
2023-05-13T20:35:19.206Z,17.90
2023-05-13T20:37:46.377Z,17.90
2023-05-13T20:40:13.197Z,17.80
2023-05-13T20:42:40.087Z,17.80
2023-05-13T20:45:08.707Z,17.80
2023-05-13T20:47:36.341Z,17.70
2023-05-13T20:50:03.671Z,17.70
2023-05-13T20:52:30.445Z,17.60
2023-05-13T20:54:57.314Z,17.50
2023-05-13T20:57:25.621Z,17.60
2023-05-13T20:59:52.885Z,17.50
2023-05-13T21:02:19.687Z,17.40
2023-05-13T21:04:46.397Z,17.30
2023-05-13T21:07:13.197Z,17.20
2023-05-13T21:09:40.144Z,17.20
2023-05-13T21:12:07.122Z,17.10
2023-05-13T21:14:33.980Z,17.10
2023-05-13T21:17:03.510Z,17.10
2023-05-13T21:19:30.832Z,17.00
2023-05-13T21:21:58.658Z,17.10
2023-05-13T21:24:25.404Z,17.00
2023-05-13T21:26:52.290Z,17.00
2023-05-13T21:29:19.343Z,17.00
2023-05-13T21:31:46.955Z,16.90
2023-05-13T21:34:13.800Z,16.90
2023-05-13T21:36:40.890Z,17.00
2023-05-13T21:39:09.514Z,16.90
2023-05-13T21:41:36.388Z,16.90
2023-05-13T21:44:03.306Z,16.80
2023-05-13T21:46:30.157Z,16.80
2023-05-13T21:48:58.441Z,16.70
2023-05-13T21:51:25.443Z,16.70
2023-05-13T21:53:52.165Z,16.60
2023-05-13T21:56:18.860Z,16.60
2023-05-13T21:58:45.729Z,16.50
2023-05-13T22:01:12.973Z,16.40
2023-05-13T22:03:41.297Z,16.30
2023-05-13T22:06:08.284Z,16.30
2023-05-13T22:08:35.047Z,16.30
2023-05-13T22:11:01.766Z,16.20
2023-05-13T22:13:28.507Z,16.20
2023-05-13T22:15:55.259Z,16.20
2023-05-13T22:18:23.660Z,16.20
2023-05-13T22:20:51.234Z,16.20
2023-05-13T22:23:18.003Z,16.00
2023-05-13T22:25:44.722Z,16.10
2023-05-13T22:28:11.515Z,16.10
2023-05-13T22:30:38.196Z,16.00
2023-05-13T22:33:04.892Z,16.00
2023-05-13T22:35:32.131Z,16.00
2023-05-13T22:37:58.792Z,15.90
2023-05-13T22:40:25.831Z,15.90
2023-05-13T22:42:52.760Z,15.90
2023-05-13T22:45:19.524Z,15.70
2023-05-13T22:47:46.228Z,15.80
2023-05-13T22:50:12.948Z,15.80
2023-05-13T22:52:40.324Z,15.70
2023-05-13T22:55:08.588Z,15.70
2023-05-13T22:57:35.410Z,15.70
2023-05-13T23:00:02.090Z,15.60
2023-05-13T23:02:28.752Z,15.50
2023-05-13T23:04:55.669Z,15.50
2023-05-13T23:07:22.367Z,15.50
2023-05-13T23:09:49.046Z,15.30
2023-05-13T23:12:15.945Z,15.30
2023-05-13T23:14:42.625Z,15.30
2023-05-13T23:17:09.359Z,15.20
2023-05-13T23:19:38.121Z,15.20
2023-05-13T23:22:04.872Z,15.10
2023-05-13T23:24:31.700Z,15.00
2023-05-13T23:26:58.508Z,15.00
2023-05-13T23:29:27.534Z,14.90
2023-05-13T23:31:55.670Z,14.90
2023-05-13T23:34:22.722Z,14.70
2023-05-13T23:36:49.501Z,14.60
2023-05-13T23:39:16.366Z,14.60
2023-05-13T23:41:43.099Z,14.50
2023-05-13T23:44:09.777Z,14.40
2023-05-13T23:46:36.499Z,14.30
2023-05-13T23:49:03.216Z,14.30
2023-05-13T23:51:29.903Z,14.20
2023-05-13T23:53:56.614Z,14.10
2023-05-13T23:56:23.377Z,14.10
2023-05-13T23:58:50.039Z,14.00
